createdAt,value
2022-10-04T00:02:15.575Z,10.57
2022-10-04T00:05:09.233Z,10.13
2022-10-04T00:07:58.486Z,10.06
2022-10-04T00:10:46.833Z,10.01
2022-10-04T00:13:34.390Z,10.22
2022-10-04T00:16:33.680Z,10.16
2022-10-04T00:19:19.822Z,10.09
2022-10-04T00:22:08.402Z,10.39
2022-10-04T00:25:07.051Z,10.39
2022-10-04T00:28:35.616Z,10.29
2022-10-04T00:31:26.347Z,10.33
2022-10-04T00:34:12.486Z,10.21
2022-10-04T00:36:58.699Z,10.38
2022-10-04T00:39:47.537Z,10.05
2022-10-04T00:42:42.104Z,10.29
2022-10-04T00:45:33.462Z,9.97
2022-10-04T00:48:41.559Z,10.24
2022-10-04T00:51:31.943Z,10.42
2022-10-04T00:54:27.602Z,10.37
2022-10-04T00:57:21.457Z,10.08
2022-10-04T01:00:12.878Z,10.47
2022-10-04T01:03:04.074Z,10.23
2022-10-04T01:05:53.949Z,10.10
2022-10-04T01:08:48.590Z,9.82
2022-10-04T01:11:42.534Z,9.58
2022-10-04T01:14:41.418Z,9.53
2022-10-04T01:17:27.593Z,9.89
2022-10-04T01:20:48.870Z,9.39
2022-10-04T01:23:42.554Z,9.19
2022-10-04T01:26:35.011Z,9.15
2022-10-04T01:29:27.188Z,9.52
2022-10-04T01:32:14.263Z,9.79
2022-10-04T01:35:00.317Z,9.88
2022-10-04T01:37:46.749Z,9.80
2022-10-04T01:40:33.851Z,9.78
2022-10-04T01:43:25.119Z,9.43
2022-10-04T01:46:14.173Z,9.16
2022-10-04T01:49:03.913Z,9.35
2022-10-04T01:51:57.990Z,9.35
2022-10-04T01:54:48.939Z,9.32
2022-10-04T01:57:42.928Z,9.29
2022-10-04T02:00:30.648Z,9.30
2022-10-04T02:03:21.033Z,9.44
2022-10-04T02:06:09.167Z,9.63
2022-10-04T02:08:57.577Z,9.23
2022-10-04T02:11:45.002Z,9.20
2022-10-04T02:14:35.417Z,9.14
2022-10-04T02:17:24.158Z,9.29
2022-10-04T02:20:17.718Z,9.07
2022-10-04T02:23:03.573Z,9.16
2022-10-04T02:25:49.948Z,9.50
2022-10-04T02:28:36.650Z,9.06
2022-10-04T02:31:42.551Z,8.93
2022-10-04T02:34:30.021Z,8.93
2022-10-04T02:37:18.438Z,8.81
2022-10-04T02:40:17.369Z,8.83
2022-10-04T02:43:09.475Z,8.91
2022-10-04T02:46:04.426Z,9.13
2022-10-04T02:48:59.021Z,9.38
2022-10-04T02:52:01.306Z,9.23
2022-10-04T02:55:12.222Z,9.21
2022-10-04T02:57:58.953Z,8.94
2022-10-04T03:01:05.563Z,8.76
2022-10-04T03:03:52.440Z,8.83
2022-10-04T03:06:39.391Z,8.91
2022-10-04T03:09:29.734Z,8.98
2022-10-04T03:12:16.569Z,9.11
2022-10-04T03:15:03.128Z,8.93
2022-10-04T03:17:50.276Z,9.57
2022-10-04T03:20:39.903Z,9.10
2022-10-04T03:23:26.230Z,9.18
2022-10-04T03:26:36.856Z,9.20
2022-10-04T03:29:25.724Z,9.41
2022-10-04T03:32:14.306Z,9.02
2022-10-04T03:35:04.642Z,9.11
2022-10-04T03:37:51.031Z,9.08
2022-10-04T03:40:38.718Z,9.06
2022-10-04T03:43:38.341Z,8.80
2022-10-04T03:46:25.650Z,8.63
2022-10-04T03:49:17.375Z,8.44
2022-10-04T03:52:04.929Z,8.40
2022-10-04T03:54:53.537Z,8.61
2022-10-04T03:57:39.700Z,8.60
2022-10-04T04:00:26.145Z,8.36
2022-10-04T04:03:16.866Z,8.72
2022-10-04T04:06:06.371Z,8.62
2022-10-04T04:08:54.341Z,8.75
2022-10-04T04:11:40.525Z,8.49
2022-10-04T04:14:27.880Z,8.74
2022-10-04T04:17:29.393Z,8.85
2022-10-04T04:20:36.961Z,8.83
2022-10-04T04:23:33.080Z,8.39
2022-10-04T04:26:25.795Z,8.39
2022-10-04T04:29:26.261Z,8.54
2022-10-04T04:32:23.931Z,8.66
2022-10-04T04:35:31.855Z,8.59
2022-10-04T04:38:22.202Z,8.55
2022-10-04T04:41:10.823Z,8.52
2022-10-04T04:43:58.334Z,8.56
2022-10-04T04:46:46.466Z,8.70
2022-10-04T04:49:33.761Z,8.74
2022-10-04T04:52:23.046Z,8.93
2022-10-04T04:55:18.993Z,8.64
2022-10-04T04:58:05.180Z,8.53
2022-10-04T05:01:00.132Z,8.65
2022-10-04T05:04:00.173Z,8.79
2022-10-04T05:06:49.525Z,8.53
2022-10-04T05:09:38.544Z,8.70
2022-10-04T05:12:24.866Z,8.47
2022-10-04T05:15:11.183Z,8.59
2022-10-04T05:17:57.688Z,8.87
2022-10-04T05:20:48.833Z,8.75
2022-10-04T05:23:35.576Z,8.54
2022-10-04T05:26:29.689Z,8.74
2022-10-04T05:29:18.383Z,8.97
2022-10-04T05:32:10.258Z,8.89
2022-10-04T05:34:57.773Z,8.67
2022-10-04T05:38:02.507Z,8.71
2022-10-04T05:40:59.349Z,8.77
2022-10-04T05:43:47.559Z,8.86
2022-10-04T05:46:34.967Z,9.42
2022-10-04T05:49:22.552Z,9.55
2022-10-04T05:52:15.558Z,9.14
2022-10-04T05:55:32.396Z,9.53
2022-10-04T05:58:21.718Z,9.01
2022-10-04T06:01:17.368Z,9.31
2022-10-04T06:04:44.204Z,9.82
2022-10-04T06:07:43.608Z,9.70
2022-10-04T06:10:58.038Z,9.29
2022-10-04T06:13:59.485Z,9.71
2022-10-04T06:17:04.958Z,10.08
2022-10-04T06:20:01.869Z,10.09
2022-10-04T06:22:49.641Z,10.19
2022-10-04T06:25:43.153Z,10.21
2022-10-04T06:28:36.955Z,10.58
2022-10-04T06:31:45.102Z,10.35
2022-10-04T06:34:45.412Z,10.21
2022-10-04T06:38:04.018Z,10.57
2022-10-04T06:41:01.483Z,10.40
2022-10-04T06:44:12.540Z,10.40
2022-10-04T06:48:10.074Z,10.60
2022-10-04T06:51:01.938Z,10.41
2022-10-04T06:54:13.082Z,10.98
2022-10-04T06:57:19.016Z,11.24
2022-10-04T07:00:26.216Z,10.91
2022-10-04T07:03:16.121Z,11.13
2022-10-04T07:06:07.292Z,10.58
2022-10-04T07:08:59.565Z,10.78
2022-10-04T07:11:59.938Z,11.26
2022-10-04T07:14:50.330Z,11.18
2022-10-04T07:17:40.632Z,11.00
2022-10-04T07:20:31.229Z,11.02
2022-10-04T07:23:51.295Z,11.02
2022-10-04T07:26:45.339Z,11.30
2022-10-04T07:29:39.909Z,11.52
2022-10-04T07:32:30.124Z,12.10
2022-10-04T07:35:32.849Z,11.77
2022-10-04T07:38:30.180Z,11.59
2022-10-04T07:41:31.626Z,11.89
2022-10-04T07:44:39.822Z,11.75
2022-10-04T07:47:27.877Z,11.80
2022-10-04T07:50:40.251Z,11.73
2022-10-04T07:53:37.754Z,12.13
2022-10-04T07:56:34.285Z,12.30
2022-10-04T07:59:35.010Z,12.72
2022-10-04T08:02:32.399Z,12.76
2022-10-04T08:05:29.431Z,12.89
2022-10-04T08:08:22.680Z,13.40
2022-10-04T08:11:14.985Z,13.52
2022-10-04T08:14:05.098Z,13.65
2022-10-04T08:17:00.820Z,13.64
2022-10-04T08:20:05.631Z,13.47
2022-10-04T08:23:01.224Z,13.90
2022-10-04T08:25:50.065Z,14.01
2022-10-04T08:28:55.401Z,14.27
2022-10-04T08:31:53.114Z,13.68
2022-10-04T08:34:53.191Z,13.06
2022-10-04T08:37:39.264Z,13.43
2022-10-04T08:40:26.361Z,13.99
2022-10-04T08:43:16.938Z,14.41
2022-10-04T08:46:06.489Z,14.33
2022-10-04T08:49:01.485Z,14.25
2022-10-04T08:51:53.845Z,14.36
2022-10-04T08:54:58.004Z,14.58
2022-10-04T08:57:56.081Z,14.84
2022-10-04T09:00:45.295Z,14.54
2022-10-04T09:03:35.594Z,14.75
2022-10-04T09:06:25.968Z,14.74
2022-10-04T09:09:21.038Z,14.83
2022-10-04T09:12:06.949Z,14.59
2022-10-04T09:15:06.662Z,15.02
2022-10-04T09:18:11.503Z,14.44
2022-10-04T09:21:01.271Z,14.34
2022-10-04T09:23:56.422Z,14.04
2022-10-04T09:26:43.543Z,14.59
2022-10-04T09:29:38.765Z,14.65
2022-10-04T09:32:34.340Z,15.10
2022-10-04T09:35:39.012Z,14.38
2022-10-04T09:41:45.905Z,14.36
2022-10-04T09:44:33.653Z,14.10
2022-10-04T09:47:22.762Z,14.30
2022-10-04T09:50:09.358Z,14.62
2022-10-04T09:53:11.688Z,14.61
2022-10-04T09:56:01.059Z,14.43
2022-10-04T09:58:53.351Z,14.86
2022-10-04T10:01:58.372Z,14.71
2022-10-04T10:05:03.502Z,14.14
2022-10-04T10:07:52.643Z,14.39
2022-10-04T10:11:00.587Z,14.37
2022-10-04T10:14:05.638Z,14.96
2022-10-04T10:17:10.574Z,14.70
2022-10-04T10:20:18.434Z,14.33
2022-10-04T10:23:04.669Z,14.47
2022-10-04T10:26:02.962Z,14.28
2022-10-04T10:29:08.238Z,14.71
2022-10-04T10:32:15.241Z,14.37
2022-10-04T10:35:20.718Z,14.11
2022-10-04T10:38:19.213Z,13.50
2022-10-04T10:41:05.169Z,14.13
2022-10-04T10:44:04.105Z,13.34
2022-10-04T10:46:51.355Z,13.60
2022-10-04T10:49:46.675Z,14.08
2022-10-04T10:52:48.366Z,14.21
2022-10-04T10:55:46.257Z,14.62
2022-10-04T10:58:38.772Z,15.01
2022-10-04T11:01:43.362Z,14.76
2022-10-04T11:04:29.516Z,15.36
2022-10-04T11:07:34.404Z,15.75
2022-10-04T11:10:39.069Z,14.94
2022-10-04T11:13:34.028Z,15.19
2022-10-04T11:16:38.466Z,15.32
2022-10-04T11:19:29.355Z,15.20
2022-10-04T11:22:24.247Z,15.48
2022-10-04T11:25:25.253Z,14.57
2022-10-04T11:32:00.666Z,14.98
2022-10-04T11:35:26.728Z,15.52
2022-10-04T11:38:16.558Z,15.88
2022-10-04T11:41:22.370Z,15.84
2022-10-04T11:44:31.099Z,15.63
2022-10-04T11:47:43.352Z,15.38
2022-10-04T11:50:48.129Z,15.74
2022-10-04T11:54:03.618Z,15.08
2022-10-04T11:57:12.347Z,15.17
2022-10-04T12:00:17.791Z,14.58
2022-10-04T12:03:27.903Z,15.30
2022-10-04T12:06:40.101Z,14.90
2022-10-04T12:09:45.907Z,15.19
2022-10-04T12:13:07.788Z,15.62
2022-10-04T12:16:16.742Z,15.30
2022-10-04T12:19:16.791Z,15.41
2022-10-04T12:22:23.728Z,15.26
2022-10-04T12:25:32.938Z,14.35
2022-10-04T12:28:47.664Z,14.28
2022-10-04T12:31:42.824Z,14.33
2022-10-04T12:34:38.533Z,14.03
2022-10-04T12:37:34.767Z,14.15
2022-10-04T12:40:33.745Z,14.50
2022-10-04T12:44:03.739Z,14.91
2022-10-04T12:53:56.707Z,15.06
2022-10-04T12:56:50.534Z,15.25
2022-10-04T13:00:00.059Z,14.90
2022-10-04T13:03:28.769Z,15.18
2022-10-04T13:07:00.778Z,15.43
2022-10-04T13:10:30.175Z,16.12
2022-10-04T13:13:35.108Z,15.44
2022-10-04T13:20:05.905Z,15.92
2022-10-04T13:23:19.960Z,15.92
2022-10-04T13:29:36.295Z,16.71
2022-10-04T13:32:30.306Z,17.16
2022-10-04T13:35:30.939Z,17.54
2022-10-04T13:39:02.128Z,18.16
2022-10-04T13:42:07.653Z,18.76
2022-10-04T13:45:36.358Z,17.02
2022-10-04T13:48:38.235Z,17.88
2022-10-04T13:51:32.626Z,18.10
2022-10-04T13:55:15.313Z,16.68
2022-10-04T13:58:25.001Z,17.31
2022-10-04T14:01:59.708Z,17.37
2022-10-04T14:05:19.076Z,17.19
2022-10-04T14:08:28.925Z,16.71
2022-10-04T14:11:38.432Z,17.42
2022-10-04T14:18:28.881Z,16.25
2022-10-04T14:21:57.429Z,17.34
2022-10-04T14:25:21.303Z,18.12
2022-10-04T14:31:37.984Z,16.69
2022-10-04T14:34:45.866Z,16.78
2022-10-04T14:38:15.801Z,16.55
2022-10-04T14:41:13.992Z,16.82
2022-10-04T14:44:26.935Z,17.35
2022-10-04T14:47:36.335Z,17.67
2022-10-04T14:50:36.754Z,17.44
2022-10-04T14:53:50.079Z,18.07
2022-10-04T14:56:59.155Z,17.72
2022-10-04T14:59:59.462Z,16.57
2022-10-04T15:06:36.722Z,16.73
2022-10-04T15:10:22.935Z,16.15
2022-10-04T15:13:40.933Z,17.42
2022-10-04T15:16:47.285Z,17.81
2022-10-04T15:20:02.765Z,17.18
2022-10-04T15:23:03.722Z,17.24
2022-10-04T15:26:05.774Z,16.66
2022-10-04T15:32:46.792Z,16.87
2022-10-04T15:35:39.792Z,17.13
2022-10-04T15:38:28.008Z,16.90
2022-10-04T15:41:31.135Z,16.40
2022-10-04T15:44:34.938Z,17.28
2022-10-04T15:47:53.308Z,16.70
2022-10-04T15:50:55.983Z,16.71
2022-10-04T15:54:04.900Z,16.00
2022-10-04T15:57:16.738Z,16.63
2022-10-04T16:00:12.730Z,16.23
2022-10-04T16:03:23.014Z,16.26
2022-10-04T16:06:12.081Z,15.56
2022-10-04T16:09:22.752Z,15.33
2022-10-04T16:12:31.740Z,15.61
2022-10-04T16:18:35.187Z,15.34
2022-10-04T16:24:53.041Z,15.49
2022-10-04T16:27:51.954Z,15.05
2022-10-04T16:30:44.819Z,15.22
2022-10-04T16:33:39.776Z,14.34
2022-10-04T16:36:32.815Z,14.17
2022-10-04T16:39:51.695Z,14.24
2022-10-04T16:42:45.790Z,14.99
2022-10-04T16:48:56.786Z,15.55
2022-10-04T16:52:12.497Z,15.66
2022-10-04T16:55:21.795Z,15.49
2022-10-04T17:01:55.473Z,15.66
2022-10-04T17:04:43.913Z,15.52
2022-10-04T17:07:48.772Z,15.33
2022-10-04T17:10:41.315Z,14.82
2022-10-04T17:13:26.919Z,14.73
2022-10-04T17:16:14.783Z,13.67
2022-10-04T17:19:20.602Z,14.13
2022-10-04T17:22:07.049Z,14.04
2022-10-04T17:24:56.276Z,13.18
2022-10-04T17:27:47.085Z,13.58
2022-10-04T17:30:43.140Z,12.93
2022-10-04T17:33:32.152Z,12.50
2022-10-04T17:36:21.088Z,12.84
2022-10-04T17:39:07.577Z,13.42
2022-10-04T17:41:56.770Z,13.10
2022-10-04T17:44:55.411Z,13.00
2022-10-04T17:48:01.765Z,13.72
2022-10-04T17:51:13.593Z,13.32
2022-10-04T17:54:22.951Z,13.80
2022-10-04T17:57:09.140Z,14.03
2022-10-04T17:59:57.944Z,13.54
2022-10-04T18:03:04.840Z,12.77
2022-10-04T18:05:55.934Z,12.67
2022-10-04T18:08:43.997Z,12.31
2022-10-04T18:11:33.246Z,12.67
2022-10-04T18:14:38.368Z,13.24
2022-10-04T18:17:27.424Z,13.61
2022-10-04T18:20:26.478Z,13.69
2022-10-04T18:23:15.414Z,13.71
2022-10-04T18:26:20.259Z,12.90
2022-10-04T18:29:07.843Z,13.04
2022-10-04T18:31:54.013Z,13.31
2022-10-04T18:34:40.370Z,13.45
2022-10-04T18:37:34.187Z,13.30
2022-10-04T18:40:22.116Z,13.31
2022-10-04T18:43:23.466Z,13.31
2022-10-04T18:46:12.771Z,13.27
2022-10-04T18:49:01.728Z,13.07
2022-10-04T18:51:54.036Z,12.97
2022-10-04T18:54:59.451Z,12.53
2022-10-04T18:58:05.575Z,12.33
2022-10-04T19:01:15.839Z,12.52
2022-10-04T19:04:03.093Z,12.68
2022-10-04T19:06:49.356Z,12.50
2022-10-04T19:09:51.576Z,12.01
2022-10-04T19:12:41.096Z,12.28
2022-10-04T19:15:39.715Z,12.35
2022-10-04T19:18:36.227Z,12.06
2022-10-04T19:21:31.130Z,12.33
2022-10-04T19:24:23.050Z,12.41
2022-10-04T19:27:21.885Z,12.36
2022-10-04T19:30:21.513Z,12.45
2022-10-04T19:33:14.146Z,11.94
2022-10-04T19:36:06.990Z,11.84
2022-10-04T19:38:53.402Z,11.30
2022-10-04T19:41:45.504Z,11.02
2022-10-04T19:44:42.120Z,11.19
2022-10-04T19:47:46.733Z,11.39
2022-10-04T19:50:37.953Z,11.61
2022-10-04T19:53:23.596Z,11.51
2022-10-04T19:56:20.336Z,11.45
2022-10-04T19:59:10.333Z,11.54
2022-10-04T20:01:56.742Z,11.70
2022-10-04T20:04:48.667Z,11.85
2022-10-04T20:07:34.908Z,11.95
2022-10-04T20:10:34.373Z,11.99
2022-10-04T20:13:21.480Z,12.23
2022-10-04T20:16:08.016Z,11.81
2022-10-04T20:18:58.638Z,11.58
2022-10-04T20:21:44.866Z,11.41
2022-10-04T20:24:37.199Z,11.39
2022-10-04T20:27:23.789Z,11.42
2022-10-04T20:30:16.635Z,11.43
2022-10-04T20:33:02.888Z,11.77
2022-10-04T20:35:58.963Z,11.70
2022-10-04T20:38:51.617Z,11.55
2022-10-04T20:41:56.369Z,11.64
2022-10-04T20:44:43.671Z,10.97
2022-10-04T20:47:29.683Z,11.19
2022-10-04T20:50:17.649Z,11.17
2022-10-04T20:53:06.100Z,11.39
2022-10-04T20:56:08.061Z,11.62
2022-10-04T20:58:54.422Z,11.66
2022-10-04T21:01:46.465Z,11.52
2022-10-04T21:04:47.201Z,11.12
2022-10-04T21:07:33.486Z,10.99
2022-10-04T21:10:19.960Z,11.07
2022-10-04T21:13:06.008Z,11.37
2022-10-04T21:15:55.310Z,11.41
2022-10-04T21:18:41.598Z,11.25
2022-10-04T21:21:46.380Z,11.29
2022-10-04T21:24:36.679Z,10.80
2022-10-04T21:27:26.594Z,10.76
2022-10-04T21:30:13.497Z,10.69
2022-10-04T21:32:59.610Z,10.77
2022-10-04T21:35:46.007Z,10.49
2022-10-04T21:38:32.087Z,10.46
2022-10-04T21:41:18.294Z,10.35
2022-10-04T21:44:04.268Z,10.20
2022-10-04T21:46:50.542Z,10.84
2022-10-04T21:49:36.410Z,10.82
2022-10-04T21:52:22.632Z,10.86
2022-10-04T21:55:10.661Z,10.78
2022-10-04T21:57:57.183Z,10.46
2022-10-04T22:00:43.090Z,9.53
2022-10-04T22:03:29.369Z,9.55
2022-10-04T22:06:15.201Z,9.68
2022-10-04T22:09:01.574Z,9.74
2022-10-04T22:11:47.458Z,10.35
2022-10-04T22:14:33.623Z,10.18
2022-10-04T22:17:19.376Z,10.48
2022-10-04T22:20:05.572Z,10.46
2022-10-04T22:22:51.600Z,10.60
2022-10-04T22:25:37.891Z,10.60
2022-10-04T22:28:24.810Z,10.30
2022-10-04T22:31:14.855Z,9.88
2022-10-04T22:34:00.916Z,8.94
2022-10-04T22:36:48.013Z,9.82
2022-10-04T22:39:34.067Z,10.08
2022-10-04T22:42:20.168Z,10.38
2022-10-04T22:45:06.603Z,10.54
2022-10-04T22:47:53.168Z,10.10
2022-10-04T22:50:38.862Z,10.22
2022-10-04T22:53:25.333Z,10.27
2022-10-04T22:56:12.346Z,9.65
2022-10-04T22:58:58.654Z,9.90
2022-10-04T23:01:44.259Z,10.21
2022-10-04T23:04:30.600Z,10.11
2022-10-04T23:07:16.362Z,10.11
2022-10-04T23:10:02.711Z,10.11
2022-10-04T23:12:49.221Z,10.03
2022-10-04T23:15:35.373Z,9.73
2022-10-04T23:18:21.277Z,9.96
2022-10-04T23:21:14.079Z,10.06
2022-10-04T23:24:01.654Z,9.09
2022-10-04T23:26:55.972Z,8.78
2022-10-04T23:29:42.091Z,8.17
2022-10-04T23:32:28.245Z,7.80
2022-10-04T23:35:16.016Z,8.44
2022-10-04T23:38:06.944Z,8.95
2022-10-04T23:40:52.773Z,9.16
2022-10-04T23:43:39.140Z,9.15
2022-10-04T23:46:24.863Z,9.21
2022-10-04T23:49:17.770Z,8.95
2022-10-04T23:52:03.684Z,9.49
2022-10-04T23:54:49.941Z,9.65
2022-10-04T23:57:35.872Z,9.58
